sensor_id;sensor_type;location;lat;lon;timestamp;temperature;humidity
72338;DHT22;60294;64.134;-21.862;2023-04-03T14:24:24;13.00;69.10
72338;DHT22;60294;64.134;-21.862;2023-04-03T14:34:13;13.00;70.10
72338;DHT22;60294;64.134;-21.862;2023-04-03T14:36:40;14.80;65.70
72338;DHT22;60294;64.134;-21.862;2023-04-03T14:39:10;14.60;63.70
72338;DHT22;60294;64.134;-21.862;2023-04-03T14:41:36;15.10;63.60
72338;DHT22;60294;64.134;-21.862;2023-04-03T14:49:00;12.50;69.20
72338;DHT22;60294;64.134;-21.862;2023-04-03T14:51:26;11.70;72.40
72338;DHT22;60294;64.134;-21.862;2023-04-03T14:53:52;11.40;74.20
72338;DHT22;60294;64.134;-21.862;2023-04-03T14:56:27;11.00;75.40
72338;DHT22;60294;64.134;-21.862;2023-04-03T14:58:59;10.70;77.30
72338;DHT22;60294;64.134;-21.862;2023-04-03T15:01:26;10.80;77.90
72338;DHT22;60294;64.134;-21.862;2023-04-03T15:03:52;10.90;78.10
72338;DHT22;60294;64.134;-21.862;2023-04-03T16:05:18;10.70;78.80
72338;DHT22;60294;64.134;-21.862;2023-04-03T16:07:45;10.40;81.00
72338;DHT22;60294;64.134;-21.862;2023-04-03T16:10:17;10.60;81.20
72338;DHT22;60294;64.134;-21.862;2023-04-03T16:12:46;10.60;80.90
72338;DHT22;60294;64.134;-21.862;2023-04-03T16:15:12;10.20;80.80
72338;DHT22;60294;64.134;-21.862;2023-04-03T16:17:43;9.90;82.30
72338;DHT22;60294;64.134;-21.862;2023-04-03T16:20:10;10.00;82.70
72338;DHT22;60294;64.134;-21.862;2023-04-03T16:25:05;9.80;83.60
72338;DHT22;60294;64.134;-21.862;2023-04-03T16:27:31;9.60;84.00
72338;DHT22;60294;64.134;-21.862;2023-04-03T16:29:58;9.60;84.00
72338;DHT22;60294;64.134;-21.862;2023-04-03T16:32:27;9.70;84.40
72338;DHT22;60294;64.134;-21.862;2023-04-03T16:34:55;9.40;84.10
72338;DHT22;60294;64.134;-21.862;2023-04-03T16:37:20;9.60;84.40
72338;DHT22;60294;64.134;-21.862;2023-04-03T16:39:46;9.70;84.20
72338;DHT22;60294;64.134;-21.862;2023-04-03T16:42:12;9.50;84.20
72338;DHT22;60294;64.134;-21.862;2023-04-03T16:44:38;9.40;84.40
72338;DHT22;60294;64.134;-21.862;2023-04-03T16:47:06;9.40;85.20
72338;DHT22;60294;64.134;-21.862;2023-04-03T16:52:04;9.10;85.30
72338;DHT22;60294;64.134;-21.862;2023-04-03T16:54:31;9.10;85.70
72338;DHT22;60294;64.134;-21.862;2023-04-03T16:56:57;9.10;85.70
72338;DHT22;60294;64.134;-21.862;2023-04-03T16:59:23;9.10;86.00
72338;DHT22;60294;64.134;-21.862;2023-04-03T17:01:49;9.20;86.20
72338;DHT22;60294;64.134;-21.862;2023-04-03T17:04:15;9.20;86.40
72338;DHT22;60294;64.134;-21.862;2023-04-03T17:06:41;9.00;86.20
72338;DHT22;60294;64.134;-21.862;2023-04-03T17:09:08;8.90;86.60
72338;DHT22;60294;64.134;-21.862;2023-04-03T17:11:35;9.00;86.80
72338;DHT22;60294;64.134;-21.862;2023-04-03T17:14:01;9.10;87.10
72338;DHT22;60294;64.134;-21.862;2023-04-03T17:16:28;9.00;86.90
72338;DHT22;60294;64.134;-21.862;2023-04-03T17:18:55;8.90;86.90
72338;DHT22;60294;64.134;-21.862;2023-04-03T17:28:41;8.90;87.10
72338;DHT22;60294;64.134;-21.862;2023-04-03T17:31:07;8.70;87.40
72338;DHT22;60294;64.134;-21.862;2023-04-03T17:33:33;8.80;87.70
72338;DHT22;60294;64.134;-21.862;2023-04-03T17:38:27;8.80;88.00
72338;DHT22;60294;64.134;-21.862;2023-04-03T17:41:01;8.90;87.90
72338;DHT22;60294;64.134;-21.862;2023-04-03T17:43:27;8.80;87.60
72338;DHT22;60294;64.134;-21.862;2023-04-03T17:45:55;9.00;87.80
72338;DHT22;60294;64.134;-21.862;2023-04-03T17:48:31;9.10;87.60
72338;DHT22;60294;64.134;-21.862;2023-04-03T17:50:57;9.10;87.40
72338;DHT22;60294;64.134;-21.862;2023-04-03T17:53:23;9.10;87.60
72338;DHT22;60294;64.134;-21.862;2023-04-03T17:55:49;9.20;87.70
72338;DHT22;60294;64.134;-21.862;2023-04-03T17:58:15;9.30;87.80
72338;DHT22;60294;64.134;-21.862;2023-04-03T18:00:41;9.20;87.90
72338;DHT22;60294;64.134;-21.862;2023-04-03T18:03:07;9.30;88.00
72338;DHT22;60294;64.134;-21.862;2023-04-03T18:05:34;9.30;88.20
72338;DHT22;60294;64.134;-21.862;2023-04-03T18:08:00;9.40;88.10
72338;DHT22;60294;64.134;-21.862;2023-04-03T18:10:27;9.50;87.80
72338;DHT22;60294;64.134;-21.862;2023-04-03T18:12:53;9.50;88.00
72338;DHT22;60294;64.134;-21.862;2023-04-03T18:15:19;9.50;87.90
72338;DHT22;60294;64.134;-21.862;2023-04-03T18:17:45;9.50;87.80
72338;DHT22;60294;64.134;-21.862;2023-04-03T18:20:14;9.60;87.90
72338;DHT22;60294;64.134;-21.862;2023-04-03T18:25:11;9.50;87.80
72338;DHT22;60294;64.134;-21.862;2023-04-03T18:27:39;9.40;87.80
72338;DHT22;60294;64.134;-21.862;2023-04-03T18:30:09;9.40;87.90
72338;DHT22;60294;64.134;-21.862;2023-04-03T18:32:37;9.40;88.00
72338;DHT22;60294;64.134;-21.862;2023-04-03T18:35:03;9.40;88.20
72338;DHT22;60294;64.134;-21.862;2023-04-03T18:37:29;9.40;88.30
72338;DHT22;60294;64.134;-21.862;2023-04-03T18:42:24;9.40;88.20
72338;DHT22;60294;64.134;-21.862;2023-04-03T18:44:55;9.40;88.30
72338;DHT22;60294;64.134;-21.862;2023-04-03T18:47:23;9.40;88.40
72338;DHT22;60294;64.134;-21.862;2023-04-03T18:49:49;9.30;88.40
72338;DHT22;60294;64.134;-21.862;2023-04-03T18:52:14;9.30;88.60
72338;DHT22;60294;64.134;-21.862;2023-04-03T18:59:33;9.30;88.90
72338;DHT22;60294;64.134;-21.862;2023-04-03T19:01:59;9.30;89.10
72338;DHT22;60294;64.134;-21.862;2023-04-03T19:04:26;9.20;89.20
72338;DHT22;60294;64.134;-21.862;2023-04-03T19:06:53;9.20;89.40
72338;DHT22;60294;64.134;-21.862;2023-04-03T19:09:19;9.10;89.50
72338;DHT22;60294;64.134;-21.862;2023-04-03T19:11:45;9.10;89.60
